sensor_id;sensor_type;location;lat;lon;timestamp;P1;durP1;ratioP1;P2;durP2;ratioP2
59207;SDS011;44977;53.132;6.408;2023-11-19T00:01:33;67.15;;;32.75;;
59207;SDS011;44977;53.132;6.408;2023-11-19T00:06:34;50.80;;;26.05;;
59207;SDS011;44977;53.132;6.408;2023-11-19T00:11:34;46.50;;;23.30;;
59207;SDS011;44977;53.132;6.408;2023-11-19T00:16:35;47.33;;;24.20;;
59207;SDS011;44977;53.132;6.408;2023-11-19T00:21:36;42.88;;;21.25;;
59207;SDS011;44977;53.132;6.408;2023-11-19T00:26:36;47.97;;;19.30;;
59207;SDS011;44977;53.132;6.408;2023-11-19T00:31:37;44.08;;;16.88;;
59207;SDS011;44977;53.132;6.408;2023-11-19T00:36:38;37.38;;;14.57;;
59207;SDS011;44977;53.132;6.408;2023-11-19T00:41:39;40.28;;;13.75;;
59207;SDS011;44977;53.132;6.408;2023-11-19T00:46:40;39.28;;;12.23;;
59207;SDS011;44977;53.132;6.408;2023-11-19T00:51:40;39.35;;;12.32;;
59207;SDS011;44977;53.132;6.408;2023-11-19T00:56:41;36.65;;;10.35;;
59207;SDS011;44977;53.132;6.408;2023-11-19T01:01:42;35.75;;;10.25;;
59207;SDS011;44977;53.132;6.408;2023-11-19T01:06:42;35.50;;;9.75;;
59207;SDS011;44977;53.132;6.408;2023-11-19T01:11:44;36.63;;;9.70;;
59207;SDS011;44977;53.132;6.408;2023-11-19T01:16:45;35.45;;;9.15;;
59207;SDS011;44977;53.132;6.408;2023-11-19T01:21:46;35.42;;;9.45;;
59207;SDS011;44977;53.132;6.408;2023-11-19T01:26:46;37.90;;;8.80;;
59207;SDS011;44977;53.132;6.408;2023-11-19T01:31:47;39.30;;;10.05;;
59207;SDS011;44977;53.132;6.408;2023-11-19T01:36:48;37.10;;;8.90;;
59207;SDS011;44977;53.132;6.408;2023-11-19T01:41:48;35.90;;;9.93;;
59207;SDS011;44977;53.132;6.408;2023-11-19T01:46:49;41.03;;;9.07;;
59207;SDS011;44977;53.132;6.408;2023-11-19T01:51:50;36.28;;;8.90;;
59207;SDS011;44977;53.132;6.408;2023-11-19T01:56:52;33.28;;;8.13;;
59207;SDS011;44977;53.132;6.408;2023-11-19T02:01:56;37.75;;;9.73;;
59207;SDS011;44977;53.132;6.408;2023-11-19T02:06:58;37.20;;;8.70;;
59207;SDS011;44977;53.132;6.408;2023-11-19T02:11:59;33.70;;;7.93;;
59207;SDS011;44977;53.132;6.408;2023-11-19T02:16:59;32.33;;;8.38;;
59207;SDS011;44977;53.132;6.408;2023-11-19T02:22:00;29.33;;;7.80;;
59207;SDS011;44977;53.132;6.408;2023-11-19T02:27:08;39.30;;;8.88;;
59207;SDS011;44977;53.132;6.408;2023-11-19T02:32:16;40.03;;;9.70;;
59207;SDS011;44977;53.132;6.408;2023-11-19T02:37:17;33.90;;;8.25;;
59207;SDS011;44977;53.132;6.408;2023-11-19T02:42:19;37.80;;;9.15;;
59207;SDS011;44977;53.132;6.408;2023-11-19T02:47:19;30.67;;;7.95;;
59207;SDS011;44977;53.132;6.408;2023-11-19T02:52:21;35.72;;;8.18;;
59207;SDS011;44977;53.132;6.408;2023-11-19T02:57:22;34.47;;;8.38;;
59207;SDS011;44977;53.132;6.408;2023-11-19T03:02:22;37.00;;;7.90;;
59207;SDS011;44977;53.132;6.408;2023-11-19T03:07:25;34.00;;;8.05;;
59207;SDS011;44977;53.132;6.408;2023-11-19T03:12:25;33.53;;;8.05;;
59207;SDS011;44977;53.132;6.408;2023-11-19T03:17:26;28.58;;;7.18;;
59207;SDS011;44977;53.132;6.408;2023-11-19T03:22:27;32.10;;;8.15;;
59207;SDS011;44977;53.132;6.408;2023-11-19T03:27:27;32.67;;;8.23;;
59207;SDS011;44977;53.132;6.408;2023-11-19T03:32:28;28.10;;;7.60;;
59207;SDS011;44977;53.132;6.408;2023-11-19T03:37:29;33.95;;;7.90;;
59207;SDS011;44977;53.132;6.408;2023-11-19T03:42:29;33.90;;;8.63;;
59207;SDS011;44977;53.132;6.408;2023-11-19T03:47:30;37.20;;;8.15;;
59207;SDS011;44977;53.132;6.408;2023-11-19T03:52:31;32.83;;;7.82;;
59207;SDS011;44977;53.132;6.408;2023-11-19T03:57:32;34.97;;;8.48;;
59207;SDS011;44977;53.132;6.408;2023-11-19T04:02:33;33.08;;;8.30;;
59207;SDS011;44977;53.132;6.408;2023-11-19T04:07:33;32.92;;;8.07;;
59207;SDS011;44977;53.132;6.408;2023-11-19T04:12:34;37.78;;;8.27;;
59207;SDS011;44977;53.132;6.408;2023-11-19T04:17:35;34.58;;;7.97;;
59207;SDS011;44977;53.132;6.408;2023-11-19T04:22:36;38.63;;;8.35;;
59207;SDS011;44977;53.132;6.408;2023-11-19T04:27:37;37.88;;;8.98;;
59207;SDS011;44977;53.132;6.408;2023-11-19T04:32:37;35.85;;;9.00;;
59207;SDS011;44977;53.132;6.408;2023-11-19T04:37:38;35.63;;;8.20;;
59207;SDS011;44977;53.132;6.408;2023-11-19T04:42:39;39.25;;;8.95;;
59207;SDS011;44977;53.132;6.408;2023-11-19T04:47:40;35.22;;;8.95;;
59207;SDS011;44977;53.132;6.408;2023-11-19T04:52:41;36.42;;;8.57;;
59207;SDS011;44977;53.132;6.408;2023-11-19T04:57:45;38.67;;;8.93;;
59207;SDS011;44977;53.132;6.408;2023-11-19T05:02:45;38.00;;;8.77;;
59207;SDS011;44977;53.132;6.408;2023-11-19T05:07:46;33.05;;;8.93;;
59207;SDS011;44977;53.132;6.408;2023-11-19T05:12:47;39.72;;;9.65;;
59207;SDS011;44977;53.132;6.408;2023-11-19T05:17:47;35.38;;;8.93;;
59207;SDS011;44977;53.132;6.408;2023-11-19T05:22:48;36.40;;;8.80;;
59207;SDS011;44977;53.132;6.408;2023-11-19T05:27:51;32.83;;;8.60;;
59207;SDS011;44977;53.132;6.408;2023-11-19T05:32:52;36.55;;;9.05;;
59207;SDS011;44977;53.132;6.408;2023-11-19T05:37:52;36.50;;;8.60;;
59207;SDS011;44977;53.132;6.408;2023-11-19T05:42:53;37.38;;;8.25;;
59207;SDS011;44977;53.132;6.408;2023-11-19T05:47:53;34.28;;;8.93;;
59207;SDS011;44977;53.132;6.408;2023-11-19T05:52:54;38.03;;;9.15;;
59207;SDS011;44977;53.132;6.408;2023-11-19T05:57:55;36.05;;;8.60;;
59207;SDS011;44977;53.132;6.408;2023-11-19T06:02:56;46.20;;;9.20;;
59207;SDS011;44977;53.132;6.408;2023-11-19T06:07:56;39.17;;;8.82;;
59207;SDS011;44977;53.132;6.408;2023-11-19T06:12:58;36.17;;;8.93;;
59207;SDS011;44977;53.132;6.408;2023-11-19T06:17:59;34.65;;;8.23;;
59207;SDS011;44977;53.132;6.408;2023-11-19T06:23:01;40.03;;;8.93;;
59207;SDS011;44977;53.132;6.408;2023-11-19T06:28:02;34.47;;;8.32;;
59207;SDS011;44977;53.132;6.408;2023-11-19T06:33:03;40.10;;;9.75;;
59207;SDS011;44977;53.132;6.408;2023-11-19T06:38:04;41.85;;;9.48;;
59207;SDS011;44977;53.132;6.408;2023-11-19T06:43:05;33.78;;;8.95;;
59207;SDS011;44977;53.132;6.408;2023-11-19T06:48:08;34.33;;;8.00;;
59207;SDS011;44977;53.132;6.408;2023-11-19T06:53:09;41.70;;;9.38;;
59207;SDS011;44977;53.132;6.408;2023-11-19T06:58:10;35.95;;;8.82;;
59207;SDS011;44977;53.132;6.408;2023-11-19T07:03:12;37.67;;;8.80;;
59207;SDS011;44977;53.132;6.408;2023-11-19T07:08:13;34.00;;;8.75;;
59207;SDS011;44977;53.132;6.408;2023-11-19T07:13:14;34.78;;;7.90;;
59207;SDS011;44977;53.132;6.408;2023-11-19T07:18:15;40.20;;;9.35;;
59207;SDS011;44977;53.132;6.408;2023-11-19T07:23:16;36.33;;;8.88;;
59207;SDS011;44977;53.132;6.408;2023-11-19T07:28:16;32.67;;;7.97;;
59207;SDS011;44977;53.132;6.408;2023-11-19T07:33:17;32.38;;;7.63;;
59207;SDS011;44977;53.132;6.408;2023-11-19T07:38:20;36.70;;;9.43;;
59207;SDS011;44977;53.132;6.408;2023-11-19T07:43:21;31.15;;;8.63;;
59207;SDS011;44977;53.132;6.408;2023-11-19T07:48:21;38.78;;;8.27;;
59207;SDS011;44977;53.132;6.408;2023-11-19T07:53:23;36.85;;;8.25;;
59207;SDS011;44977;53.132;6.408;2023-11-19T07:58:24;37.10;;;8.75;;
59207;SDS011;44977;53.132;6.408;2023-11-19T08:03:25;34.70;;;9.00;;
59207;SDS011;44977;53.132;6.408;2023-11-19T08:08:25;32.80;;;8.32;;
59207;SDS011;44977;53.132;6.408;2023-11-19T08:13:26;37.80;;;9.13;;
59207;SDS011;44977;53.132;6.408;2023-11-19T08:18:27;28.90;;;7.78;;
59207;SDS011;44977;53.132;6.408;2023-11-19T08:23:27;36.80;;;8.48;;
59207;SDS011;44977;53.132;6.408;2023-11-19T08:28:28;35.65;;;8.02;;
59207;SDS011;44977;53.132;6.408;2023-11-19T08:33:29;40.05;;;9.15;;
59207;SDS011;44977;53.132;6.408;2023-11-19T08:38:30;43.33;;;8.50;;
59207;SDS011;44977;53.132;6.408;2023-11-19T08:43:31;34.38;;;8.30;;
59207;SDS011;44977;53.132;6.408;2023-11-19T08:48:31;38.00;;;9.07;;
59207;SDS011;44977;53.132;6.408;2023-11-19T08:53:32;37.72;;;8.32;;
59207;SDS011;44977;53.132;6.408;2023-11-19T08:58:33;40.28;;;9.40;;
59207;SDS011;44977;53.132;6.408;2023-11-19T09:03:33;39.53;;;8.52;;
59207;SDS011;44977;53.132;6.408;2023-11-19T09:08:34;34.20;;;8.30;;
59207;SDS011;44977;53.132;6.408;2023-11-19T09:13:35;41.17;;;8.85;;
59207;SDS011;44977;53.132;6.408;2023-11-19T09:18:36;34.40;;;8.55;;
59207;SDS011;44977;53.132;6.408;2023-11-19T09:23:37;40.97;;;8.57;;
59207;SDS011;44977;53.132;6.408;2023-11-19T09:28:39;41.25;;;8.82;;
59207;SDS011;44977;53.132;6.408;2023-11-19T09:33:40;35.33;;;8.35;;
59207;SDS011;44977;53.132;6.408;2023-11-19T09:38:40;35.08;;;7.72;;
59207;SDS011;44977;53.132;6.408;2023-11-19T09:43:41;34.83;;;8.25;;
59207;SDS011;44977;53.132;6.408;2023-11-19T09:48:43;36.08;;;7.68;;
59207;SDS011;44977;53.132;6.408;2023-11-19T09:53:45;37.20;;;8.65;;
59207;SDS011;44977;53.132;6.408;2023-11-19T09:58:46;38.20;;;8.95;;
59207;SDS011;44977;53.132;6.408;2023-11-19T10:03:47;31.90;;;8.07;;
59207;SDS011;44977;53.132;6.408;2023-11-19T10:08:50;33.88;;;7.82;;
59207;SDS011;44977;53.132;6.408;2023-11-19T10:13:51;34.75;;;7.65;;
59207;SDS011;44977;53.132;6.408;2023-11-19T10:18:53;37.20;;;8.70;;
59207;SDS011;44977;53.132;6.408;2023-11-19T10:23:56;36.75;;;8.25;;
59207;SDS011;44977;53.132;6.408;2023-11-19T10:28:59;32.55;;;8.57;;
59207;SDS011;44977;53.132;6.408;2023-11-19T10:34:01;29.48;;;7.35;;
59207;SDS011;44977;53.132;6.408;2023-11-19T10:39:02;36.88;;;8.68;;
59207;SDS011;44977;53.132;6.408;2023-11-19T10:44:02;36.13;;;8.60;;
59207;SDS011;44977;53.132;6.408;2023-11-19T10:49:03;33.75;;;7.82;;
59207;SDS011;44977;53.132;6.408;2023-11-19T10:54:05;34.05;;;8.13;;
59207;SDS011;44977;53.132;6.408;2023-11-19T10:59:06;37.67;;;8.75;;
59207;SDS011;44977;53.132;6.408;2023-11-19T11:04:11;33.95;;;7.75;;
59207;SDS011;44977;53.132;6.408;2023-11-19T11:09:15;33.83;;;7.30;;
59207;SDS011;44977;53.132;6.408;2023-11-19T11:14:16;30.38;;;7.57;;
59207;SDS011;44977;53.132;6.408;2023-11-19T11:19:20;31.08;;;7.00;;
59207;SDS011;44977;53.132;6.408;2023-11-19T11:35:12;34.05;;;7.82;;
59207;SDS011;44977;53.132;6.408;2023-11-19T11:40:18;30.85;;;7.45;;
59207;SDS011;44977;53.132;6.408;2023-11-19T11:45:19;32.80;;;7.30;;
59207;SDS011;44977;53.132;6.408;2023-11-19T11:50:35;31.77;;;7.50;;
59207;SDS011;44977;53.132;6.408;2023-11-19T12:00:51;31.98;;;7.55;;
59207;SDS011;44977;53.132;6.408;2023-11-19T12:05:52;30.23;;;7.63;;
59207;SDS011;44977;53.132;6.408;2023-11-19T12:10:53;33.22;;;7.63;;
59207;SDS011;44977;53.132;6.408;2023-11-19T12:20:59;29.67;;;7.38;;
59207;SDS011;44977;53.132;6.408;2023-11-19T12:26:00;30.52;;;8.05;;
59207;SDS011;44977;53.132;6.408;2023-11-19T12:31:07;33.08;;;7.47;;
59207;SDS011;44977;53.132;6.408;2023-11-19T12:36:09;30.15;;;7.47;;
59207;SDS011;44977;53.132;6.408;2023-11-19T12:41:10;25.58;;;6.25;;
59207;SDS011;44977;53.132;6.408;2023-11-19T12:46:21;30.65;;;7.32;;
59207;SDS011;44977;53.132;6.408;2023-11-19T12:51:22;26.85;;;6.30;;
59207;SDS011;44977;53.132;6.408;2023-11-19T12:56:31;32.53;;;7.22;;
59207;SDS011;44977;53.132;6.408;2023-11-19T13:01:32;30.92;;;6.82;;
59207;SDS011;44977;53.132;6.408;2023-11-19T13:06:35;25.92;;;6.40;;
59207;SDS011;44977;53.132;6.408;2023-11-19T13:11:44;31.35;;;7.57;;
59207;SDS011;44977;53.132;6.408;2023-11-19T13:16:46;28.52;;;6.82;;
59207;SDS011;44977;53.132;6.408;2023-11-19T13:21:47;30.10;;;6.47;;
59207;SDS011;44977;53.132;6.408;2023-11-19T13:26:48;28.73;;;6.82;;
59207;SDS011;44977;53.132;6.408;2023-11-19T13:31:49;29.40;;;6.72;;
59207;SDS011;44977;53.132;6.408;2023-11-19T13:36:50;27.73;;;6.45;;
59207;SDS011;44977;53.132;6.408;2023-11-19T13:41:50;27.67;;;6.40;;
59207;SDS011;44977;53.132;6.408;2023-11-19T13:46:51;25.17;;;6.38;;
59207;SDS011;44977;53.132;6.408;2023-11-19T13:51:52;25.60;;;6.70;;
59207;SDS011;44977;53.132;6.408;2023-11-19T13:56:56;26.33;;;6.50;;
59207;SDS011;44977;53.132;6.408;2023-11-19T14:02:01;32.97;;;6.90;;
59207;SDS011;44977;53.132;6.408;2023-11-19T14:07:02;25.02;;;6.32;;
59207;SDS011;44977;53.132;6.408;2023-11-19T14:12:03;25.45;;;6.38;;
59207;SDS011;44977;53.132;6.408;2023-11-19T14:17:04;27.65;;;7.05;;
59207;SDS011;44977;53.132;6.408;2023-11-19T14:22:05;27.02;;;6.15;;
59207;SDS011;44977;53.132;6.408;2023-11-19T14:27:06;27.83;;;6.93;;
59207;SDS011;44977;53.132;6.408;2023-11-19T14:32:06;25.63;;;6.43;;
59207;SDS011;44977;53.132;6.408;2023-11-19T14:37:07;25.85;;;6.25;;
59207;SDS011;44977;53.132;6.408;2023-11-19T14:42:08;27.00;;;6.45;;
59207;SDS011;44977;53.132;6.408;2023-11-19T14:47:08;25.85;;;6.72;;
59207;SDS011;44977;53.132;6.408;2023-11-19T14:52:10;30.95;;;6.68;;
59207;SDS011;44977;53.132;6.408;2023-11-19T14:57:11;26.10;;;6.45;;
59207;SDS011;44977;53.132;6.408;2023-11-19T15:02:12;29.23;;;6.50;;
59207;SDS011;44977;53.132;6.408;2023-11-19T15:07:12;25.35;;;6.43;;
59207;SDS011;44977;53.132;6.408;2023-11-19T15:12:13;23.77;;;6.32;;
59207;SDS011;44977;53.132;6.408;2023-11-19T15:17:15;26.02;;;5.97;;
59207;SDS011;44977;53.132;6.408;2023-11-19T15:22:16;20.80;;;5.38;;
59207;SDS011;44977;53.132;6.408;2023-11-19T15:27:17;23.00;;;6.80;;
59207;SDS011;44977;53.132;6.408;2023-11-19T15:32:18;27.02;;;6.32;;
59207;SDS011;44977;53.132;6.408;2023-11-19T15:37:18;25.65;;;6.05;;
59207;SDS011;44977;53.132;6.408;2023-11-19T15:42:20;25.38;;;6.00;;
59207;SDS011;44977;53.132;6.408;2023-11-19T15:47:20;23.95;;;5.88;;
59207;SDS011;44977;53.132;6.408;2023-11-19T15:52:21;24.85;;;5.57;;
59207;SDS011;44977;53.132;6.408;2023-11-19T15:57:22;23.63;;;6.53;;
59207;SDS011;44977;53.132;6.408;2023-11-19T16:02:23;28.55;;;6.57;;
59207;SDS011;44977;53.132;6.408;2023-11-19T16:07:24;25.20;;;6.82;;
59207;SDS011;44977;53.132;6.408;2023-11-19T16:12:25;25.80;;;5.97;;
59207;SDS011;44977;53.132;6.408;2023-11-19T16:17:26;24.85;;;6.93;;
59207;SDS011;44977;53.132;6.408;2023-11-19T16:22:31;27.23;;;6.30;;
59207;SDS011;44977;53.132;6.408;2023-11-19T16:27:33;25.15;;;6.40;;
59207;SDS011;44977;53.132;6.408;2023-11-19T16:32:35;24.60;;;6.15;;
59207;SDS011;44977;53.132;6.408;2023-11-19T16:37:49;26.92;;;7.63;;
59207;SDS011;44977;53.132;6.408;2023-11-19T16:42:50;28.95;;;7.70;;
59207;SDS011;44977;53.132;6.408;2023-11-19T16:47:51;28.15;;;6.72;;
59207;SDS011;44977;53.132;6.408;2023-11-19T16:52:52;24.92;;;7.28;;
59207;SDS011;44977;53.132;6.408;2023-11-19T16:57:52;22.85;;;6.13;;
59207;SDS011;44977;53.132;6.408;2023-11-19T17:02:54;22.25;;;6.80;;
59207;SDS011;44977;53.132;6.408;2023-11-19T17:07:54;23.65;;;6.25;;
59207;SDS011;44977;53.132;6.408;2023-11-19T17:12:55;22.98;;;6.03;;
59207;SDS011;44977;53.132;6.408;2023-11-19T17:17:56;22.92;;;5.50;;
59207;SDS011;44977;53.132;6.408;2023-11-19T17:22:57;17.95;;;5.15;;
59207;SDS011;44977;53.132;6.408;2023-11-19T17:27:57;19.75;;;5.40;;
59207;SDS011;44977;53.132;6.408;2023-11-19T17:32:58;21.67;;;6.22;;
59207;SDS011;44977;53.132;6.408;2023-11-19T17:37:59;22.63;;;6.70;;
59207;SDS011;44977;53.132;6.408;2023-11-19T17:43:00;26.10;;;8.07;;
59207;SDS011;44977;53.132;6.408;2023-11-19T17:48:01;25.75;;;7.40;;
59207;SDS011;44977;53.132;6.408;2023-11-19T17:53:02;24.55;;;6.93;;
59207;SDS011;44977;53.132;6.408;2023-11-19T17:58:03;30.05;;;10.23;;
59207;SDS011;44977;53.132;6.408;2023-11-19T18:03:04;31.55;;;7.57;;
59207;SDS011;44977;53.132;6.408;2023-11-19T18:08:05;29.40;;;8.27;;
59207;SDS011;44977;53.132;6.408;2023-11-19T18:13:08;32.25;;;9.73;;
59207;SDS011;44977;53.132;6.408;2023-11-19T18:18:10;32.55;;;7.70;;
59207;SDS011;44977;53.132;6.408;2023-11-19T18:23:12;34.10;;;8.20;;
59207;SDS011;44977;53.132;6.408;2023-11-19T18:28:14;31.02;;;8.65;;
59207;SDS011;44977;53.132;6.408;2023-11-19T18:33:16;32.15;;;8.60;;
59207;SDS011;44977;53.132;6.408;2023-11-19T18:38:16;31.92;;;10.95;;
59207;SDS011;44977;53.132;6.408;2023-11-19T18:43:17;31.02;;;10.38;;
59207;SDS011;44977;53.132;6.408;2023-11-19T18:48:18;31.38;;;11.93;;
59207;SDS011;44977;53.132;6.408;2023-11-19T18:53:18;24.63;;;8.48;;
59207;SDS011;44977;53.132;6.408;2023-11-19T18:58:19;24.50;;;7.18;;
59207;SDS011;44977;53.132;6.408;2023-11-19T19:03:20;40.50;;;24.05;;
59207;SDS011;44977;53.132;6.408;2023-11-19T19:08:22;22.98;;;8.05;;
59207;SDS011;44977;53.132;6.408;2023-11-19T19:13:23;22.67;;;9.27;;
59207;SDS011;44977;53.132;6.408;2023-11-19T19:18:24;20.85;;;9.70;;
59207;SDS011;44977;53.132;6.408;2023-11-19T19:23:24;21.23;;;6.30;;
59207;SDS011;44977;53.132;6.408;2023-11-19T19:28:25;22.33;;;8.25;;
59207;SDS011;44977;53.132;6.408;2023-11-19T19:33:26;18.27;;;6.20;;
59207;SDS011;44977;53.132;6.408;2023-11-19T19:38:26;19.80;;;7.18;;
59207;SDS011;44977;53.132;6.408;2023-11-19T19:43:27;21.30;;;8.93;;
59207;SDS011;44977;53.132;6.408;2023-11-19T19:48:28;16.05;;;5.38;;
59207;SDS011;44977;53.132;6.408;2023-11-19T19:53:28;15.55;;;4.90;;
59207;SDS011;44977;53.132;6.408;2023-11-19T19:58:29;17.15;;;6.00;;
59207;SDS011;44977;53.132;6.408;2023-11-19T20:03:32;15.02;;;7.00;;
59207;SDS011;44977;53.132;6.408;2023-11-19T20:08:33;19.45;;;9.68;;
59207;SDS011;44977;53.132;6.408;2023-11-19T20:13:34;13.43;;;7.00;;
59207;SDS011;44977;53.132;6.408;2023-11-19T20:18:35;13.90;;;4.47;;
59207;SDS011;44977;53.132;6.408;2023-11-19T20:23:36;13.30;;;3.42;;
59207;SDS011;44977;53.132;6.408;2023-11-19T20:28:37;11.68;;;3.22;;
59207;SDS011;44977;53.132;6.408;2023-11-19T20:33:38;12.15;;;3.72;;
59207;SDS011;44977;53.132;6.408;2023-11-19T20:38:38;13.25;;;3.67;;
59207;SDS011;44977;53.132;6.408;2023-11-19T20:43:39;10.80;;;3.20;;
59207;SDS011;44977;53.132;6.408;2023-11-19T20:48:40;11.13;;;3.70;;
59207;SDS011;44977;53.132;6.408;2023-11-19T20:53:41;12.35;;;4.70;;
59207;SDS011;44977;53.132;6.408;2023-11-19T20:58:42;10.65;;;3.92;;
59207;SDS011;44977;53.132;6.408;2023-11-19T21:03:43;11.80;;;3.60;;
59207;SDS011;44977;53.132;6.408;2023-11-19T21:08:43;11.85;;;3.45;;
59207;SDS011;44977;53.132;6.408;2023-11-19T21:13:44;14.55;;;4.22;;
59207;SDS011;44977;53.132;6.408;2023-11-19T21:18:45;18.55;;;4.65;;
59207;SDS011;44977;53.132;6.408;2023-11-19T21:23:47;20.90;;;5.10;;
59207;SDS011;44977;53.132;6.408;2023-11-19T21:28:47;19.13;;;5.10;;
59207;SDS011;44977;53.132;6.408;2023-11-19T21:33:48;21.95;;;5.30;;
59207;SDS011;44977;53.132;6.408;2023-11-19T21:38:49;11.32;;;2.78;;
59207;SDS011;44977;53.132;6.408;2023-11-19T21:43:50;5.57;;;1.58;;
59207;SDS011;44977;53.132;6.408;2023-11-19T21:48:51;7.05;;;1.75;;
59207;SDS011;44977;53.132;6.408;2023-11-19T21:53:51;8.18;;;1.55;;
59207;SDS011;44977;53.132;6.408;2023-11-19T21:58:52;5.38;;;1.40;;
59207;SDS011;44977;53.132;6.408;2023-11-19T22:03:53;4.90;;;1.33;;
59207;SDS011;44977;53.132;6.408;2023-11-19T22:08:53;3.45;;;1.20;;
59207;SDS011;44977;53.132;6.408;2023-11-19T22:13:54;3.22;;;1.10;;
59207;SDS011;44977;53.132;6.408;2023-11-19T22:18:55;3.95;;;1.10;;
59207;SDS011;44977;53.132;6.408;2023-11-19T22:23:55;3.75;;;1.17;;
59207;SDS011;44977;53.132;6.408;2023-11-19T22:28:56;3.25;;;0.90;;
59207;SDS011;44977;53.132;6.408;2023-11-19T22:33:58;3.45;;;0.93;;
59207;SDS011;44977;53.132;6.408;2023-11-19T22:38:58;1.88;;;0.70;;
59207;SDS011;44977;53.132;6.408;2023-11-19T22:43:59;3.88;;;0.80;;
59207;SDS011;44977;53.132;6.408;2023-11-19T22:49:00;2.15;;;0.55;;
59207;SDS011;44977;53.132;6.408;2023-11-19T22:54:01;1.75;;;0.60;;
59207;SDS011;44977;53.132;6.408;2023-11-19T22:59:03;3.38;;;0.80;;
59207;SDS011;44977;53.132;6.408;2023-11-19T23:04:04;1.25;;;0.73;;
59207;SDS011;44977;53.132;6.408;2023-11-19T23:09:06;3.90;;;1.33;;
59207;SDS011;44977;53.132;6.408;2023-11-19T23:14:07;6.15;;;1.75;;
59207;SDS011;44977;53.132;6.408;2023-11-19T23:19:08;9.80;;;2.40;;
59207;SDS011;44977;53.132;6.408;2023-11-19T23:24:09;10.30;;;2.80;;
59207;SDS011;44977;53.132;6.408;2023-11-19T23:29:11;14.75;;;3.78;;
59207;SDS011;44977;53.132;6.408;2023-11-19T23:34:11;15.65;;;4.10;;
59207;SDS011;44977;53.132;6.408;2023-11-19T23:39:12;18.73;;;3.97;;
59207;SDS011;44977;53.132;6.408;2023-11-19T23:44:13;16.67;;;3.95;;
59207;SDS011;44977;53.132;6.408;2023-11-19T23:49:13;16.05;;;4.35;;
59207;SDS011;44977;53.132;6.408;2023-11-19T23:54:15;17.85;;;4.53;;
59207;SDS011;44977;53.132;6.408;2023-11-19T23:59:16;19.20;;;5.05;;
